createdAt,value
2018-04-15T00:00:53.154Z,78.46
2018-04-15T00:03:26.939Z,78.53
2018-04-15T00:06:00.489Z,79.07
2018-04-15T00:08:34.228Z,79.08
2018-04-15T00:11:07.981Z,79.47
2018-04-15T00:13:41.895Z,79.77
2018-04-15T00:16:15.572Z,79.81
2018-04-15T00:18:49.078Z,79.79
2018-04-15T00:21:22.619Z,79.71
2018-04-15T00:23:56.438Z,79.81
2018-04-15T00:26:30.142Z,80.10
2018-04-15T00:29:03.888Z,80.25
2018-04-15T00:31:37.563Z,80.28
2018-04-15T00:34:11.289Z,79.91
2018-04-15T00:36:45.005Z,80.04
2018-04-15T00:39:18.677Z,80.08
2018-04-15T00:41:52.159Z,80.33
2018-04-15T00:44:25.748Z,80.54
2018-04-15T00:46:59.528Z,80.64
2018-04-15T00:49:33.154Z,80.39
2018-04-15T00:52:07.254Z,80.40
2018-04-15T00:54:41.711Z,80.44
2018-04-15T00:57:15.436Z,80.50
2018-04-15T00:59:49.161Z,80.14
2018-04-15T01:02:22.907Z,80.25
2018-04-15T01:04:56.721Z,80.34
2018-04-15T01:07:30.379Z,80.41
2018-04-15T01:10:04.188Z,80.54
2018-04-15T01:12:37.669Z,80.63
2018-04-15T01:15:11.454Z,80.90
2018-04-15T01:17:45.175Z,80.72
2018-04-15T01:20:18.915Z,80.87
2018-04-15T01:22:52.487Z,80.86
2018-04-15T01:25:26.097Z,80.83
2018-04-15T01:27:59.690Z,81.14
2018-04-15T01:40:18.531Z,82.72
2018-04-15T01:55:52.310Z,84.60
2018-04-15T01:58:26.401Z,84.59
2018-04-15T02:01:00.403Z,84.25
2018-04-15T02:03:34.111Z,84.01
2018-04-15T02:06:07.747Z,83.79
2018-04-15T02:08:41.471Z,83.43
2018-04-15T02:11:15.248Z,83.49
2018-04-15T02:13:48.999Z,83.47
2018-04-15T02:16:23.694Z,83.42
2018-04-15T02:18:58.150Z,83.09
2018-04-15T02:21:31.886Z,83.16
2018-04-15T02:24:05.698Z,83.10
2018-04-15T02:26:40.420Z,82.82
2018-04-15T02:29:13.954Z,82.61
2018-04-15T02:31:47.614Z,82.56
2018-04-15T02:34:22.108Z,82.51
2018-04-15T02:36:55.765Z,82.62
2018-04-15T02:39:29.570Z,82.74
2018-04-15T02:42:03.245Z,82.76
2018-04-15T02:44:36.829Z,82.92
2018-04-15T02:47:10.542Z,83.04
2018-04-15T02:49:44.238Z,83.44
2018-04-15T02:52:18.010Z,83.88
2018-04-15T02:54:52.694Z,83.67
2018-04-15T02:57:26.399Z,83.69
2018-04-15T03:00:00.485Z,83.78
2018-04-15T03:02:34.002Z,83.81
2018-04-15T03:05:07.565Z,83.86
2018-04-15T03:07:41.327Z,84.18
2018-04-15T03:10:15.236Z,83.90
2018-04-15T03:12:48.886Z,83.43
2018-04-15T03:15:22.670Z,83.59
2018-04-15T03:17:56.194Z,83.56
2018-04-15T03:20:30.386Z,83.16
2018-04-15T03:23:04.282Z,83.41
2018-04-15T03:25:38.858Z,83.53
2018-04-15T03:28:12.540Z,83.70
2018-04-15T03:30:47.548Z,83.92
2018-04-15T03:33:21.201Z,83.62
2018-04-15T03:35:54.948Z,83.69
2018-04-15T03:38:28.654Z,83.89
2018-04-15T03:41:02.233Z,83.88
2018-04-15T03:43:36.059Z,84.07
2018-04-15T03:46:10.487Z,84.14
2018-04-15T04:01:44.210Z,84.91
2018-04-15T04:04:17.872Z,85.00
2018-04-15T04:06:51.549Z,84.94
2018-04-15T04:09:25.537Z,84.95
2018-04-15T04:11:59.242Z,85.14
2018-04-15T04:14:34.647Z,85.52
2018-04-15T04:17:09.024Z,85.30
2018-04-15T04:22:56.884Z,85.05
2018-04-15T04:25:42.318Z,85.19
2018-04-15T04:28:16.024Z,85.01
2018-04-15T04:30:49.927Z,84.74
2018-04-15T04:33:23.666Z,84.79
2018-04-15T04:35:57.494Z,84.65
2018-04-15T04:38:31.243Z,84.56
2018-04-15T04:41:06.748Z,84.73
2018-04-15T04:43:40.423Z,85.01
2018-04-15T04:46:14.196Z,85.16
2018-04-15T04:48:47.854Z,85.29
2018-04-15T04:51:21.362Z,85.47
2018-04-15T04:53:54.902Z,85.45
2018-04-15T04:56:28.692Z,85.49
2018-04-15T04:59:02.385Z,85.23
2018-04-15T05:01:36.041Z,85.16
2018-04-15T05:04:09.616Z,85.04
2018-04-15T05:06:43.234Z,85.09
2018-04-15T05:09:16.856Z,85.10
2018-04-15T05:11:50.557Z,85.31
2018-04-15T05:14:24.416Z,85.42
2018-04-15T05:16:58.150Z,85.43
2018-04-15T05:19:32.842Z,85.27
2018-04-15T05:22:06.510Z,85.48
2018-04-15T05:24:40.331Z,85.49
2018-04-15T05:27:14.088Z,85.36
2018-04-15T05:29:47.850Z,85.27
2018-04-15T05:32:22.320Z,85.40
2018-04-15T05:34:56.003Z,85.20
2018-04-15T05:37:29.808Z,85.28
2018-04-15T05:40:03.649Z,84.90
2018-04-15T05:42:37.171Z,84.84
2018-04-15T05:45:10.766Z,84.97
2018-04-15T05:47:45.049Z,85.07
2018-04-15T05:50:18.871Z,84.85
2018-04-15T05:52:53.067Z,84.89
2018-04-15T05:55:28.320Z,85.17
2018-04-15T05:58:02.199Z,85.28
2018-04-15T06:00:36.545Z,85.19
2018-04-15T06:03:11.222Z,85.15
2018-04-15T06:18:44.956Z,85.46
2018-04-15T06:21:19.519Z,85.26
2018-04-15T06:23:53.208Z,85.30
2018-04-15T06:26:27.294Z,85.12
2018-04-15T06:29:01.100Z,84.96
2018-04-15T06:31:34.846Z,85.00
2018-04-15T06:34:08.403Z,84.71
2018-04-15T06:36:42.079Z,84.64
2018-04-15T06:39:16.680Z,84.45
2018-04-15T06:41:50.282Z,84.36
2018-04-15T06:44:23.932Z,84.30
2018-04-15T06:46:57.465Z,83.98
2018-04-15T06:49:31.601Z,83.98
2018-04-15T06:52:05.262Z,83.88
2018-04-15T07:07:39.398Z,83.67
2018-04-15T07:10:12.976Z,83.17
2018-04-15T07:12:46.805Z,82.94
2018-04-15T07:15:20.372Z,82.97
2018-04-15T07:17:54.046Z,82.72
2018-04-15T07:20:28.390Z,82.19
2018-04-15T07:23:01.974Z,82.51
2018-04-15T07:25:37.536Z,82.87
2018-04-15T07:28:11.867Z,83.02
2018-04-15T07:30:45.562Z,83.01
2018-04-15T07:33:19.502Z,82.72
2018-04-15T07:35:53.111Z,82.85
2018-04-15T07:38:26.834Z,82.85
2018-04-15T07:41:00.508Z,82.53
2018-04-15T07:43:34.963Z,82.19
2018-04-15T07:46:08.688Z,81.84
2018-04-15T07:48:42.364Z,81.43
2018-04-15T07:51:16.396Z,80.02
2018-04-15T07:53:50.176Z,79.91
2018-04-15T07:56:23.802Z,79.48
2018-04-15T07:58:57.473Z,78.27
2018-04-15T08:01:31.119Z,78.12
2018-04-15T08:04:04.859Z,78.69
2018-04-15T08:06:38.523Z,78.89
2018-04-15T08:09:12.262Z,78.71
2018-04-15T08:11:45.912Z,78.30
2018-04-15T08:14:19.487Z,78.29
2018-04-15T08:16:53.859Z,78.41
2018-04-15T08:19:27.556Z,77.99
2018-04-15T08:22:01.367Z,76.93
2018-04-15T08:24:35.399Z,75.52
2018-04-15T08:27:08.970Z,76.59
2018-04-15T08:29:42.627Z,74.97
2018-04-15T08:32:16.344Z,71.77
2018-04-15T08:34:50.843Z,72.69
2018-04-15T08:37:24.662Z,73.86
2018-04-15T08:39:59.140Z,75.10
2018-04-15T08:42:33.713Z,75.04
2018-04-15T08:45:07.716Z,74.26
2018-04-15T08:47:41.382Z,73.50
2018-04-15T08:50:16.335Z,73.38
2018-04-15T08:52:49.826Z,73.44
2018-04-15T08:55:24.430Z,73.69
2018-04-15T08:57:57.983Z,74.43
2018-04-15T09:00:31.654Z,74.46
2018-04-15T09:03:05.675Z,74.99
2018-04-15T09:05:39.380Z,75.00
2018-04-15T09:08:13.074Z,74.84
2018-04-15T09:10:48.757Z,73.41
2018-04-15T09:13:22.432Z,72.26
2018-04-15T09:15:56.055Z,71.88
2018-04-15T09:18:29.718Z,71.55
2018-04-15T09:21:03.350Z,71.52
2018-04-15T09:23:37.382Z,71.02
2018-04-15T09:26:11.078Z,71.30
2018-04-15T09:28:44.808Z,70.94
2018-04-15T09:31:18.824Z,70.72
2018-04-15T09:33:52.439Z,70.56
2018-04-15T09:46:16.203Z,70.06
2018-04-15T09:48:49.815Z,69.33
2018-04-15T09:51:24.307Z,68.96
2018-04-15T09:53:58.367Z,69.04
2018-04-15T09:56:32.146Z,69.26
2018-04-15T09:59:06.805Z,68.85
2018-04-15T10:01:40.435Z,68.35
2018-04-15T10:04:14.098Z,68.98
2018-04-15T10:06:47.738Z,68.45
2018-04-15T10:09:21.398Z,68.15
2018-04-15T10:11:55.227Z,68.16
2018-04-15T10:14:28.854Z,67.71
2018-04-15T10:17:02.432Z,67.43
2018-04-15T10:19:36.537Z,67.38
2018-04-15T10:22:10.154Z,66.61
2018-04-15T10:24:43.774Z,66.56
2018-04-15T10:27:17.302Z,67.23
2018-04-15T10:29:50.968Z,67.41
2018-04-15T10:32:24.686Z,67.01
2018-04-15T10:34:58.341Z,67.23
2018-04-15T10:37:32.163Z,67.64
2018-04-15T10:40:05.744Z,67.27
2018-04-15T10:42:39.435Z,66.94
2018-04-15T10:45:13.092Z,66.32
2018-04-15T10:47:46.835Z,66.19
2018-04-15T10:50:20.410Z,66.10
2018-04-15T10:52:54.352Z,66.26
2018-04-15T10:55:28.210Z,65.32
2018-04-15T10:58:01.779Z,65.49
2018-04-15T11:00:35.655Z,65.62
2018-04-15T11:03:09.326Z,65.71
2018-04-15T11:05:42.851Z,64.85
2018-04-15T11:08:16.464Z,65.80
2018-04-15T11:10:50.241Z,64.31
2018-04-15T11:13:23.938Z,62.82
2018-04-15T11:15:58.635Z,63.22
2018-04-15T11:18:32.771Z,63.85
2018-04-15T11:21:06.535Z,64.07
2018-04-15T11:23:40.067Z,63.48
2018-04-15T11:26:13.571Z,63.09
2018-04-15T11:28:47.475Z,62.92
2018-04-15T11:31:21.031Z,62.05
2018-04-15T11:33:54.714Z,61.95
2018-04-15T11:36:28.270Z,62.52
2018-04-15T11:39:01.906Z,62.79
2018-04-15T11:41:36.656Z,64.18
2018-04-15T11:44:10.346Z,63.13
2018-04-15T11:46:43.852Z,61.87
2018-04-15T11:49:17.659Z,63.17
2018-04-15T11:51:51.203Z,63.59
2018-04-15T11:54:24.736Z,63.23
2018-04-15T11:56:59.202Z,63.25
2018-04-15T11:59:32.868Z,62.75
2018-04-15T12:02:06.857Z,62.88
2018-04-15T12:04:40.479Z,63.11
2018-04-15T12:07:14.988Z,61.95
2018-04-15T12:09:48.479Z,62.50
2018-04-15T12:12:23.018Z,62.55
2018-04-15T12:14:56.623Z,63.09
2018-04-15T12:17:30.418Z,62.57
2018-04-15T12:20:04.100Z,62.02
2018-04-15T12:22:37.611Z,61.83
2018-04-15T12:25:11.351Z,60.86
2018-04-15T12:27:45.159Z,61.01
2018-04-15T12:30:18.783Z,61.37
2018-04-15T12:32:52.482Z,61.33
2018-04-15T12:35:25.986Z,62.03
2018-04-15T12:37:59.614Z,59.63
2018-04-15T12:40:33.338Z,59.05
2018-04-15T12:43:06.864Z,58.40
2018-04-15T12:45:40.445Z,59.33
2018-04-15T12:48:13.906Z,60.11
2018-04-15T12:50:47.428Z,60.84
2018-04-15T12:53:20.910Z,60.57
2018-04-15T12:55:54.418Z,59.92
2018-04-15T12:58:28.192Z,59.79
2018-04-15T13:01:01.726Z,60.24
2018-04-15T13:03:35.330Z,61.24
2018-04-15T13:06:09.115Z,60.37
2018-04-15T13:08:42.756Z,60.35
2018-04-15T13:11:16.353Z,60.77
2018-04-15T13:13:49.839Z,61.06
2018-04-15T13:16:23.821Z,60.51
2018-04-15T13:18:57.565Z,59.79
2018-04-15T13:21:31.158Z,59.81
2018-04-15T13:24:05.289Z,60.83
2018-04-15T13:26:38.799Z,60.35
2018-04-15T13:29:12.412Z,60.70
2018-04-15T13:44:46.141Z,65.56
2018-04-15T13:47:19.716Z,65.40
2018-04-15T13:49:54.226Z,66.00
2018-04-15T13:52:27.944Z,65.84
2018-04-15T13:55:01.778Z,64.08
2018-04-15T13:57:36.218Z,64.67
2018-04-15T14:00:09.768Z,65.17
2018-04-15T14:02:43.435Z,65.23
2018-04-15T14:05:17.004Z,65.63
2018-04-15T14:07:50.670Z,64.95
2018-04-15T14:10:24.944Z,64.98
2018-04-15T14:12:58.474Z,64.25
2018-04-15T14:15:32.119Z,63.92
2018-04-15T14:18:05.610Z,62.57
2018-04-15T14:20:40.122Z,61.80
2018-04-15T14:23:13.748Z,60.76
2018-04-15T14:25:48.338Z,60.61
2018-04-15T14:28:22.128Z,60.99
2018-04-15T14:30:56.762Z,59.65
2018-04-15T14:33:30.335Z,59.80
2018-04-15T14:36:03.993Z,59.36
2018-04-15T14:38:37.680Z,59.21
2018-04-15T14:41:12.244Z,59.13
2018-04-15T14:43:47.167Z,60.05
2018-04-15T14:46:20.874Z,59.84
2018-04-15T14:48:54.636Z,59.67
2018-04-15T14:51:28.188Z,58.80
2018-04-15T14:54:02.014Z,58.81
2018-04-15T14:56:35.736Z,59.28
2018-04-15T14:59:09.490Z,59.73
2018-04-15T15:01:43.134Z,59.93
2018-04-15T15:04:16.689Z,60.83
2018-04-15T15:06:50.441Z,60.22
2018-04-15T15:09:23.926Z,59.82
2018-04-15T15:11:57.672Z,59.91
2018-04-15T15:14:31.548Z,60.71
2018-04-15T15:17:05.244Z,60.71
2018-04-15T15:19:39.785Z,60.61
2018-04-15T15:22:13.357Z,60.89
2018-04-15T15:24:47.116Z,60.67
2018-04-15T15:27:21.058Z,60.83
2018-04-15T15:29:54.627Z,60.74
2018-04-15T15:32:29.275Z,61.20
2018-04-15T15:35:03.716Z,61.30
2018-04-15T15:37:37.404Z,61.15
2018-04-15T15:40:11.501Z,61.87
2018-04-15T15:42:45.172Z,61.75
2018-04-15T15:45:18.671Z,62.13
2018-04-15T15:47:52.211Z,61.77
2018-04-15T15:50:25.972Z,61.62
2018-04-15T15:52:59.560Z,61.88
2018-04-15T15:55:33.194Z,62.39
2018-04-15T15:58:06.780Z,62.48
2018-04-15T16:00:40.345Z,62.32
2018-04-15T16:03:13.949Z,62.45
2018-04-15T16:05:47.796Z,63.17
2018-04-15T16:08:21.530Z,62.42
2018-04-15T16:10:55.129Z,61.81
2018-04-15T16:13:28.824Z,62.05
2018-04-15T16:16:02.372Z,62.39
2018-04-15T16:18:36.094Z,62.07
2018-04-15T16:21:09.748Z,62.73
2018-04-15T16:23:44.068Z,62.32
2018-04-15T16:26:18.196Z,62.30
2018-04-15T16:28:51.884Z,64.06
2018-04-15T16:31:25.720Z,64.37
2018-04-15T16:33:59.272Z,64.64
2018-04-15T16:36:33.322Z,64.72
2018-04-15T16:39:07.232Z,64.03
2018-04-15T16:41:40.854Z,64.21
2018-04-15T16:44:14.382Z,63.83
2018-04-15T16:56:33.140Z,64.26
2018-04-15T16:59:06.983Z,64.00
2018-04-15T17:01:40.729Z,63.70
2018-04-15T17:04:14.714Z,63.43
2018-04-15T17:06:48.505Z,63.61
2018-04-15T17:09:22.175Z,63.41
2018-04-15T17:11:56.338Z,63.15
2018-04-15T17:14:30.064Z,64.06
2018-04-15T17:17:04.663Z,62.64
2018-04-15T17:19:38.216Z,63.14
2018-04-15T17:22:12.037Z,62.34
2018-04-15T17:24:48.189Z,62.17
2018-04-15T17:27:21.904Z,62.33
2018-04-15T17:29:55.836Z,62.72
2018-04-15T17:32:29.605Z,63.34
2018-04-15T17:35:03.209Z,62.84
2018-04-15T17:37:36.798Z,62.85
2018-04-15T17:40:10.309Z,62.83
2018-04-15T17:42:43.887Z,62.24
2018-04-15T17:45:17.609Z,62.88
2018-04-15T17:47:51.463Z,63.46
2018-04-15T17:50:25.159Z,63.08
2018-04-15T17:52:58.680Z,65.11
2018-04-15T17:55:33.354Z,63.84
2018-04-15T17:58:07.195Z,64.23
2018-04-15T18:00:40.714Z,63.56
2018-04-15T18:03:14.256Z,62.46
2018-04-15T18:05:48.020Z,62.61
2018-04-15T18:08:21.641Z,62.45
2018-04-15T18:10:55.376Z,62.74
2018-04-15T18:13:29.863Z,63.23
2018-04-15T18:16:03.397Z,63.30
2018-04-15T18:18:37.719Z,63.33
2018-04-15T18:21:11.442Z,63.45
2018-04-15T18:23:45.191Z,63.23
2018-04-15T18:26:18.861Z,63.34
2018-04-15T18:28:52.372Z,63.88
2018-04-15T18:31:26.046Z,63.50
2018-04-15T18:33:59.835Z,63.19
2018-04-15T18:36:33.521Z,63.62
2018-04-15T18:39:07.290Z,63.54
2018-04-15T18:41:40.931Z,63.51
2018-04-15T18:53:59.979Z,62.93
2018-04-15T18:56:33.492Z,63.63
2018-04-15T18:59:07.408Z,63.14
2018-04-15T19:01:41.104Z,64.20
2018-04-15T19:04:15.733Z,62.98
2018-04-15T19:06:49.528Z,62.31
2018-04-15T19:09:23.137Z,62.15
2018-04-15T19:11:56.795Z,62.48
2018-04-15T19:14:30.607Z,62.68
2018-04-15T19:17:04.232Z,62.73
2018-04-15T19:19:37.933Z,62.75
2018-04-15T19:22:11.777Z,62.80
2018-04-15T19:24:45.437Z,62.89
2018-04-15T19:27:18.996Z,62.38
2018-04-15T19:29:52.613Z,61.97
2018-04-15T19:32:26.411Z,62.46
2018-04-15T19:34:59.936Z,62.16
2018-04-15T19:37:34.381Z,62.57
2018-04-15T19:40:07.991Z,63.06
2018-04-15T19:42:41.547Z,64.14
2018-04-15T19:45:15.223Z,64.55
2018-04-15T19:47:48.978Z,64.78
2018-04-15T19:50:22.642Z,65.31
2018-04-15T19:52:56.184Z,65.35
2018-04-15T19:55:30.003Z,65.45
2018-04-15T19:58:03.842Z,66.24
2018-04-15T20:00:37.527Z,66.28
2018-04-15T20:03:11.276Z,65.91
2018-04-15T20:05:44.902Z,66.10
2018-04-15T20:08:18.498Z,65.49
2018-04-15T20:10:51.981Z,65.39
2018-04-15T20:13:25.846Z,65.00
2018-04-15T20:15:59.451Z,65.00
2018-04-15T20:18:32.986Z,65.01
2018-04-15T20:21:06.495Z,64.75
2018-04-15T20:23:40.087Z,64.52
2018-04-15T20:26:13.745Z,64.62
2018-04-15T20:28:47.467Z,64.83
2018-04-15T20:31:21.101Z,65.52
2018-04-15T20:33:54.804Z,65.90
2018-04-15T20:36:28.607Z,66.05
2018-04-15T20:39:02.328Z,65.87
2018-04-15T20:41:36.059Z,65.91
2018-04-15T20:44:09.582Z,65.75
2018-04-15T20:46:43.492Z,66.05
2018-04-15T20:49:17.200Z,66.30
2018-04-15T20:51:50.832Z,66.30
2018-04-15T20:54:24.599Z,67.42
2018-04-15T20:56:58.843Z,67.22
2018-04-15T20:59:32.460Z,67.09
2018-04-15T21:02:06.007Z,66.77
2018-04-15T21:04:39.803Z,65.95
2018-04-15T21:07:13.465Z,65.50
2018-04-15T21:09:47.424Z,64.70
2018-04-15T21:12:21.071Z,65.33
2018-04-15T21:14:56.322Z,65.90
2018-04-15T21:17:29.968Z,65.22
2018-04-15T21:20:03.511Z,64.84
2018-04-15T21:22:36.991Z,64.64
2018-04-15T21:25:10.512Z,64.05
2018-04-15T21:27:44.239Z,64.90
2018-04-15T21:30:17.891Z,64.72
2018-04-15T21:32:51.541Z,63.90
2018-04-15T21:35:25.059Z,64.10
2018-04-15T21:37:59.407Z,64.35
2018-04-15T21:40:33.057Z,64.49
2018-04-15T21:43:07.206Z,64.78
2018-04-15T21:45:40.791Z,65.22
2018-04-15T21:48:15.354Z,64.22
2018-04-15T21:50:48.883Z,64.21
2018-04-15T21:53:23.179Z,63.93
2018-04-15T21:55:56.720Z,64.04
2018-04-15T21:58:30.356Z,64.32
2018-04-15T22:01:04.059Z,63.18
2018-04-15T22:03:37.587Z,63.08
2018-04-15T22:06:11.315Z,63.08
2018-04-15T22:08:44.847Z,63.40
2018-04-15T22:11:18.559Z,63.96
2018-04-15T22:13:52.109Z,64.13
2018-04-15T22:16:25.663Z,65.24
2018-04-15T22:18:59.506Z,66.13
2018-04-15T22:21:33.236Z,67.14
2018-04-15T22:24:06.914Z,67.09
2018-04-15T22:39:40.635Z,70.21
2018-04-15T22:42:15.163Z,70.22
2018-04-15T22:44:48.835Z,70.23
2018-04-15T22:47:22.547Z,70.37
2018-04-15T22:53:01.595Z,70.62
2018-04-15T22:55:35.606Z,71.24
2018-04-15T22:58:09.231Z,71.78
2018-04-15T23:00:42.847Z,72.21
2018-04-15T23:03:16.355Z,72.54
2018-04-15T23:05:49.875Z,73.00
2018-04-15T23:08:23.677Z,73.26
2018-04-15T23:10:57.204Z,73.14
2018-04-15T23:13:31.180Z,73.27
2018-04-15T23:16:04.845Z,73.16
2018-04-15T23:18:38.615Z,73.18
2018-04-15T23:21:12.090Z,73.12
2018-04-15T23:23:45.646Z,73.00
2018-04-15T23:26:19.731Z,73.26
2018-04-15T23:28:53.343Z,73.43
2018-04-15T23:31:27.028Z,73.60
2018-04-15T23:34:01.684Z,73.32
2018-04-15T23:36:35.321Z,73.56
2018-04-15T23:39:08.844Z,74.24
2018-04-15T23:41:43.387Z,73.64
2018-04-15T23:44:16.995Z,74.07
2018-04-15T23:46:50.642Z,73.46
2018-04-15T23:49:24.217Z,73.71
2018-04-15T23:51:58.056Z,74.44
2018-04-15T23:54:31.904Z,74.39
2018-04-15T23:57:05.507Z,74.63
2018-04-15T23:59:39.138Z,74.59
